Aérodrome :
LOGIN :

S'inscrire | Disclaimer

   EN    FR    IT 

 










Légende :    VFR   VFR Marginal   IFR   IFR Intensif   IFR Très Intensif
Visi : 
Plafond : 
>= 8 km
>= 3000ft
5 à 8 km
1000 à 3000 ft
1500m à 5 km
500 à 1000 ft
800 à 1500m
200 à 500 ft
< 800m
< 200 ft
Symboles :   Orages  Brouillard  Fortes neiges  Fortes précipitations  Vent > 20 kt
SIGMETs :   Divers  Orages  Givrage  Turbulence  Onde Orograph.  Cendres Volcan.






- Altitude de l'aérodrome : 404 ft
- Code IATA : WRO


EPWR - Wroclaw

DERNIER METAR :
  • 150930Z 17008KT CAVOK 23/10 Q1011

METARs EXPIRÉS :
  • 150900Z 13010KT CAVOK 24/12 Q1012
  • 150830Z 13008KT 090V160 9999 FEW043 23/13 Q1012
  • 150800Z 15009KT CAVOK 22/12 Q1012
  • 150730Z 15008KT 120V180 CAVOK 21/13 Q1012
  • 150700Z 14008KT 120V180 CAVOK 20/12 Q1012

TAF TAF EPWR
Valide du 15 à 09h jusqu'au 16 à 09h UTC


150830Z 1509/1609 14005KT CAVOK
TEMPO 1511/1514 SCT050CB
BECMG 1514/1517 28010KT
TEMPO 1514/1522 VRB20G35KT 3000 TSRA BKN013 BKN025CB
TEMPO 1522/1605 4000 RA BR BKN007



MET'MAP, la Météo Aéronautique d'un coup d'oeil ! - Copyright ORBIFLY Décembre 2007 - Disclaimer

ORBIFLY MET'MAP TEAM :

Programmation & Développement : Alexandra Zaïnal
Sur une idée originale de : Baudouin d'Aumeries
Assistance à la programmation : Marc-Olivier Méhu
Soutien technique & logistique : Manuel Goepfert

Contact : metmap@orbifly.com




SOURCES & CREDITS :

   NOAA